createdAt,value
2022-08-20T00:01:08.266Z,19.80
2022-08-20T00:03:40.372Z,19.13
2022-08-20T00:06:11.278Z,18.20
2022-08-20T00:08:40.180Z,20.00
2022-08-20T00:11:11.480Z,19.27
2022-08-20T00:13:47.720Z,20.10
2022-08-20T00:16:17.067Z,19.23
2022-08-20T00:18:45.293Z,18.90
2022-08-20T00:21:19.168Z,20.10
2022-08-20T00:23:49.693Z,20.90
2022-08-20T00:26:18.075Z,20.40
2022-08-20T00:28:46.622Z,19.73
2022-08-20T00:31:19.124Z,19.90
2022-08-20T00:33:47.596Z,20.73
2022-08-20T00:36:17.478Z,20.30
2022-08-20T00:38:46.983Z,21.23
2022-08-20T00:41:26.798Z,19.42
2022-08-20T00:44:17.950Z,21.48
2022-08-20T00:46:46.792Z,21.55
2022-08-20T00:49:25.788Z,20.63
2022-08-20T00:52:00.447Z,20.58
2022-08-20T00:54:35.270Z,20.45
2022-08-20T00:57:26.433Z,20.25
2022-08-20T00:59:54.050Z,22.15
2022-08-20T01:02:27.604Z,22.38
2022-08-20T01:04:57.735Z,22.27
2022-08-20T01:07:33.551Z,23.27
2022-08-20T01:10:19.434Z,22.30
2022-08-20T01:12:55.561Z,22.50
2022-08-20T01:15:31.992Z,22.52
2022-08-20T01:18:01.909Z,22.95
2022-08-20T01:20:43.322Z,22.42
2022-08-20T01:23:43.140Z,22.55
2022-08-20T01:26:39.048Z,23.70
2022-08-20T01:29:22.855Z,22.05
2022-08-20T01:31:50.320Z,23.45
2022-08-20T01:34:21.884Z,23.67
2022-08-20T01:36:56.909Z,24.13
2022-08-20T01:39:36.498Z,24.98
2022-08-20T01:42:25.850Z,24.80
2022-08-20T01:44:53.424Z,24.90
2022-08-20T01:47:33.664Z,25.92
2022-08-20T01:50:21.014Z,25.17
2022-08-20T01:53:15.316Z,25.13
2022-08-20T01:55:43.377Z,24.88
2022-08-20T01:58:10.701Z,25.00
2022-08-20T02:00:37.871Z,26.27
2022-08-20T02:03:07.654Z,25.52
2022-08-20T02:05:35.954Z,27.15
2022-08-20T02:08:04.777Z,26.70
2022-08-20T02:10:32.606Z,26.63
2022-08-20T02:13:01.451Z,25.98
2022-08-20T02:15:34.653Z,25.77
2022-08-20T02:18:08.517Z,26.98
2022-08-20T02:20:36.266Z,29.25
2022-08-20T02:23:05.717Z,26.52
2022-08-20T02:25:38.116Z,26.70
2022-08-20T02:30:43.774Z,27.92
2022-08-20T02:33:24.283Z,26.63
2022-08-20T02:36:03.592Z,25.80
2022-08-20T02:38:37.914Z,26.80
2022-08-20T02:41:12.533Z,28.17
2022-08-20T02:43:49.847Z,25.98
2022-08-20T02:46:23.024Z,26.67
2022-08-20T02:48:50.206Z,27.13
2022-08-20T02:51:17.502Z,27.80
2022-08-20T02:53:57.679Z,27.80
2022-08-20T02:56:25.108Z,27.08
2022-08-20T02:58:52.171Z,25.35
2022-08-20T03:01:20.054Z,25.23
2022-08-20T03:03:47.473Z,26.40
2022-08-20T03:06:15.249Z,27.67
2022-08-20T03:08:43.675Z,25.58
2022-08-20T03:11:11.498Z,27.30
2022-08-20T03:13:38.570Z,27.33
2022-08-20T03:21:37.583Z,26.73
2022-08-20T03:24:55.512Z,27.05
2022-08-20T03:49:31.701Z,18.50
2022-08-20T04:05:44.705Z,13.50
2022-08-20T04:08:46.428Z,13.95
2022-08-20T04:11:17.126Z,13.82
2022-08-20T04:13:44.196Z,14.68
2022-08-20T04:16:12.821Z,12.70
2022-08-20T04:18:42.204Z,13.10
2022-08-20T04:21:31.557Z,12.70
2022-08-20T04:24:06.318Z,11.93
2022-08-20T04:26:36.448Z,10.32
2022-08-20T04:29:04.530Z,10.68
2022-08-20T04:32:21.328Z,9.70
2022-08-20T04:34:55.201Z,9.13
2022-08-20T04:37:31.483Z,7.40
2022-08-20T04:41:22.825Z,8.02
2022-08-20T05:34:53.023Z,13.93
2022-08-20T05:50:38.803Z,12.77
2022-08-20T06:08:22.070Z,14.95
2022-08-20T06:12:02.543Z,17.38
2022-08-20T06:24:25.144Z,18.30
2022-08-20T06:38:31.297Z,19.00
2022-08-20T07:01:11.512Z,26.85
2022-08-20T07:08:24.802Z,26.25
2022-08-20T07:14:33.300Z,27.70
2022-08-20T07:24:40.513Z,28.73
2022-08-20T07:27:32.829Z,28.05
2022-08-20T07:30:55.780Z,28.27
2022-08-20T07:33:52.445Z,28.85
2022-08-20T07:36:50.382Z,27.30
2022-08-20T07:39:50.249Z,27.63
2022-08-20T07:42:47.823Z,28.42
2022-08-20T07:48:50.801Z,23.10
2022-08-20T07:52:13.667Z,27.75
2022-08-20T07:55:15.409Z,30.42
2022-08-20T07:58:23.093Z,30.95
2022-08-20T08:01:14.312Z,31.70
2022-08-20T08:11:58.977Z,34.93
2022-08-20T08:52:30.309Z,32.03
2022-08-20T09:00:04.929Z,32.78
2022-08-20T09:08:46.056Z,31.65
2022-08-20T09:13:34.714Z,32.33
2022-08-20T09:16:24.320Z,31.67
2022-08-20T09:19:07.499Z,28.88
2022-08-20T09:21:55.148Z,28.75
2022-08-20T09:24:29.594Z,29.00
2022-08-20T09:29:35.958Z,28.98
2022-08-20T09:32:32.251Z,30.55
2022-08-20T09:35:40.503Z,27.52
2022-08-20T09:38:32.948Z,28.58
2022-08-20T09:41:26.964Z,29.17
2022-08-20T09:44:08.676Z,29.63
2022-08-20T09:49:50.842Z,29.08
2022-08-20T09:52:49.437Z,27.73
2022-08-20T09:55:44.785Z,29.40
2022-08-20T09:58:51.727Z,30.10
2022-08-20T10:01:33.575Z,31.02
2022-08-20T10:04:18.242Z,32.08
2022-08-20T10:07:10.139Z,31.35
2022-08-20T10:10:09.661Z,32.42
2022-08-20T10:12:57.071Z,31.10
2022-08-20T10:15:29.683Z,30.70
2022-08-20T10:18:16.857Z,33.15
2022-08-20T10:20:56.319Z,30.52
2022-08-20T10:23:45.697Z,31.45
2022-08-20T10:28:55.213Z,30.08
2022-08-20T10:31:25.880Z,31.20
2022-08-20T10:33:53.433Z,31.48
2022-08-20T10:36:45.180Z,32.13
2022-08-20T10:39:17.888Z,29.23
2022-08-20T10:41:47.751Z,32.90
2022-08-20T10:44:14.859Z,30.75
2022-08-20T10:46:41.957Z,33.80
2022-08-20T10:49:09.156Z,32.35
2022-08-20T10:51:37.685Z,34.00
2022-08-20T10:54:14.894Z,32.72
2022-08-20T10:56:43.622Z,32.70
2022-08-20T10:59:12.638Z,33.33
2022-08-20T11:01:39.932Z,34.42
2022-08-20T11:04:17.796Z,35.15
2022-08-20T11:08:11.239Z,34.47
2022-08-20T11:11:11.700Z,33.55
2022-08-20T11:13:59.931Z,33.55
2022-08-20T11:16:34.452Z,35.55
2022-08-20T11:19:51.453Z,34.80
2022-08-20T11:22:36.242Z,34.47
2022-08-20T11:25:21.133Z,34.00
2022-08-20T11:27:58.297Z,35.40
2022-08-20T11:30:37.842Z,34.55
2022-08-20T11:33:19.361Z,34.60
2022-08-20T11:36:11.031Z,34.05
2022-08-20T11:38:55.891Z,34.63
2022-08-20T11:41:36.416Z,34.95
2022-08-20T11:44:20.098Z,34.83
2022-08-20T11:47:10.001Z,37.17
2022-08-20T11:49:52.609Z,34.88
2022-08-20T11:52:37.137Z,33.80
2022-08-20T11:55:17.887Z,33.90
2022-08-20T11:58:06.350Z,32.83
2022-08-20T12:00:42.485Z,31.58
2022-08-20T12:03:13.081Z,32.25
2022-08-20T12:05:52.297Z,33.67
2022-08-20T12:08:27.816Z,32.25
2022-08-20T12:11:09.958Z,32.28
2022-08-20T12:13:48.307Z,31.50
2022-08-20T12:16:33.954Z,31.92
2022-08-20T12:19:11.182Z,33.75
2022-08-20T12:21:43.437Z,30.95
2022-08-20T12:24:13.889Z,32.45
2022-08-20T12:26:41.243Z,33.88
2022-08-20T12:29:10.976Z,31.50
2022-08-20T12:31:38.062Z,30.17
2022-08-20T12:34:05.113Z,30.90
2022-08-20T12:36:45.075Z,29.63
2022-08-20T12:39:14.983Z,32.47
2022-08-20T12:41:52.538Z,31.20
2022-08-20T12:44:20.159Z,29.00
2022-08-20T12:46:53.065Z,31.58
2022-08-20T12:49:32.449Z,32.00
2022-08-20T12:52:18.372Z,31.48
2022-08-20T12:54:52.501Z,32.05
2022-08-20T12:57:29.869Z,32.50
2022-08-20T13:00:15.335Z,32.00
2022-08-20T13:02:54.924Z,32.78
2022-08-20T13:05:23.711Z,32.20
2022-08-20T13:07:55.094Z,31.83
2022-08-20T13:10:31.083Z,31.23
2022-08-20T13:13:01.783Z,32.03
2022-08-20T13:15:30.725Z,30.27
2022-08-20T13:18:01.805Z,31.95
2022-08-20T13:20:31.755Z,31.92
2022-08-20T13:23:04.545Z,32.72
2022-08-20T13:25:38.594Z,32.40
2022-08-20T13:28:06.513Z,33.33
2022-08-20T13:30:38.768Z,33.85
2022-08-20T13:33:06.037Z,32.35
2022-08-20T13:35:33.177Z,31.23
2022-08-20T13:38:00.204Z,33.20
2022-08-20T13:40:27.750Z,31.70
2022-08-20T13:42:54.877Z,31.75
2022-08-20T13:45:27.237Z,32.33
2022-08-20T13:47:55.845Z,32.00
2022-08-20T13:50:27.374Z,30.63
2022-08-20T13:52:54.846Z,31.45
2022-08-20T13:55:27.045Z,30.42
2022-08-20T13:57:56.962Z,30.13
2022-08-20T14:00:32.254Z,32.20
2022-08-20T14:03:06.345Z,30.73
2022-08-20T14:05:35.331Z,31.80
2022-08-20T14:08:19.335Z,31.55
2022-08-20T14:10:51.624Z,29.05
2022-08-20T14:13:22.963Z,29.58
2022-08-20T14:15:51.068Z,29.73
2022-08-20T14:18:19.860Z,30.60
2022-08-20T14:20:47.834Z,30.63
2022-08-20T14:23:16.121Z,28.67
2022-08-20T14:25:48.227Z,29.10
2022-08-20T14:28:21.809Z,31.83
2022-08-20T14:30:52.978Z,32.80
2022-08-20T14:33:23.084Z,32.40
2022-08-20T14:35:50.861Z,30.52
2022-08-20T14:38:18.403Z,28.27
2022-08-20T14:40:45.992Z,27.45
2022-08-20T14:43:18.186Z,27.95
2022-08-20T14:45:54.088Z,28.48
2022-08-20T14:48:22.682Z,27.45
2022-08-20T14:50:49.903Z,27.23
2022-08-20T14:53:17.025Z,27.83
2022-08-20T14:55:44.144Z,28.65
2022-08-20T14:58:13.199Z,27.75
2022-08-20T15:00:41.548Z,25.77
2022-08-20T15:03:08.988Z,23.48
2022-08-20T15:05:39.523Z,21.08
2022-08-20T15:08:10.024Z,21.52
2022-08-20T15:10:39.343Z,21.95
2022-08-20T15:13:06.988Z,22.90
2022-08-20T15:15:35.055Z,22.85
2022-08-20T15:18:03.838Z,25.60
2022-08-20T15:20:37.379Z,22.75
2022-08-20T15:23:06.234Z,25.80
2022-08-20T15:25:37.691Z,23.83
2022-08-20T15:28:09.145Z,24.80
2022-08-20T15:30:40.157Z,24.40
2022-08-20T15:33:09.226Z,24.35
2022-08-20T15:35:36.967Z,24.98
2022-08-20T15:38:04.286Z,25.77
2022-08-20T15:40:33.557Z,24.75
2022-08-20T15:43:03.159Z,25.00
2022-08-20T15:45:31.185Z,25.50
2022-08-20T15:48:23.112Z,25.90
2022-08-20T15:51:30.870Z,26.17
2022-08-20T15:54:29.713Z,26.02
2022-08-20T15:57:32.925Z,25.48
2022-08-20T16:00:20.110Z,27.23
2022-08-20T16:03:57.776Z,24.60
2022-08-20T16:06:34.758Z,26.88
2022-08-20T16:09:40.299Z,26.92
2022-08-20T16:12:15.854Z,25.25
2022-08-20T16:14:54.401Z,26.02
2022-08-20T16:17:39.520Z,25.88
2022-08-20T16:20:35.505Z,25.85
2022-08-20T16:23:04.285Z,25.35
2022-08-20T16:25:46.784Z,25.88
2022-08-20T16:29:11.334Z,25.20
2022-08-20T16:32:00.544Z,25.15
2022-08-20T16:35:02.572Z,25.70
2022-08-20T16:37:57.111Z,24.45
2022-08-20T16:40:49.424Z,23.05
2022-08-20T16:44:02.285Z,22.58
2022-08-20T16:46:38.187Z,23.08
2022-08-20T16:49:13.807Z,23.15
2022-08-20T16:51:53.474Z,23.15
2022-08-20T16:54:30.061Z,23.85
2022-08-20T16:57:06.168Z,23.85
2022-08-20T16:59:33.655Z,24.92
2022-08-20T17:02:16.695Z,24.80
2022-08-20T17:05:01.685Z,24.27
2022-08-20T17:07:52.805Z,25.88
2022-08-20T17:10:32.845Z,25.48
2022-08-20T17:13:29.288Z,26.05
2022-08-20T17:16:21.045Z,27.10
2022-08-20T17:18:55.223Z,26.15
2022-08-20T17:21:41.461Z,25.98
2022-08-20T17:24:28.471Z,26.00
2022-08-20T17:27:10.339Z,26.85
2022-08-20T17:29:54.989Z,26.48
2022-08-20T17:32:28.962Z,27.50
2022-08-20T17:35:09.305Z,30.20
2022-08-20T17:37:40.682Z,28.77
2022-08-20T17:40:19.725Z,29.55
2022-08-20T17:43:01.462Z,29.58
2022-08-20T17:45:44.533Z,30.20
2022-08-20T17:48:27.334Z,29.90
2022-08-20T17:50:55.484Z,33.55
2022-08-20T17:53:31.696Z,30.85
2022-08-20T17:56:08.998Z,32.05
2022-08-20T17:59:05.656Z,31.85
2022-08-20T18:01:35.083Z,29.95
2022-08-20T18:04:11.151Z,29.67
2022-08-20T18:07:10.169Z,30.13
2022-08-20T18:10:17.321Z,30.92
2022-08-20T18:13:10.062Z,28.27
2022-08-20T18:15:58.484Z,27.73
2022-08-20T18:18:56.685Z,28.88
2022-08-20T18:22:08.154Z,27.85
2022-08-20T18:24:53.753Z,26.85
2022-08-20T18:27:29.540Z,26.63
2022-08-20T18:30:00.677Z,26.38
2022-08-20T18:32:37.680Z,27.67
2022-08-20T18:35:32.915Z,28.73
2022-08-20T18:38:23.486Z,29.75
2022-08-20T18:40:55.086Z,28.38
2022-08-20T18:43:30.717Z,27.50
2022-08-20T18:46:12.153Z,29.00
2022-08-20T18:48:53.292Z,30.42
2022-08-20T18:51:28.899Z,29.23
2022-08-20T18:53:59.069Z,29.08
2022-08-20T18:56:35.553Z,28.05
2022-08-20T18:59:13.052Z,27.88
2022-08-20T19:01:42.726Z,28.52
2022-08-20T19:04:23.441Z,28.35
2022-08-20T19:07:06.700Z,28.73
2022-08-20T19:10:02.306Z,28.58
2022-08-20T19:12:59.062Z,27.63
2022-08-20T19:15:27.264Z,27.05
2022-08-20T19:18:14.092Z,27.08
2022-08-20T19:21:00.148Z,25.85
2022-08-20T19:23:39.630Z,27.65
2022-08-20T19:26:25.798Z,28.13
2022-08-20T19:29:13.393Z,26.90
2022-08-20T19:31:47.191Z,28.40
2022-08-20T19:34:26.550Z,28.35
2022-08-20T19:37:35.023Z,27.58
2022-08-20T19:40:42.879Z,28.00
2022-08-20T19:43:18.971Z,27.88
2022-08-20T19:45:54.308Z,27.27
2022-08-20T19:48:52.790Z,27.60
2022-08-20T19:51:52.139Z,25.92
2022-08-20T19:54:27.281Z,26.77
2022-08-20T19:57:04.697Z,26.08
2022-08-20T19:59:32.927Z,27.33
2022-08-20T20:02:20.261Z,25.58
2022-08-20T20:04:55.618Z,27.40
2022-08-20T20:07:39.566Z,27.08
2022-08-20T20:10:19.714Z,27.10
2022-08-20T20:12:50.427Z,26.02
2022-08-20T20:15:26.362Z,26.70
2022-08-20T20:18:03.301Z,26.63
2022-08-20T20:20:57.128Z,26.73
2022-08-20T20:23:55.027Z,26.15
2022-08-20T20:26:23.267Z,26.42
2022-08-20T20:29:05.597Z,27.70
2022-08-20T20:31:53.783Z,27.63
2022-08-20T20:34:55.423Z,27.63
2022-08-20T20:37:50.717Z,28.63
2022-08-20T20:40:33.791Z,28.25
2022-08-20T20:43:14.101Z,28.35
2022-08-20T20:45:55.541Z,26.98
2022-08-20T20:48:33.818Z,27.92
2022-08-20T20:51:14.259Z,29.02
2022-08-20T20:53:51.293Z,28.83
2022-08-20T20:56:39.816Z,30.85
2022-08-20T20:59:09.660Z,29.40
2022-08-20T21:01:49.477Z,28.88
2022-08-20T21:04:23.138Z,29.83
2022-08-20T21:06:53.292Z,29.63
2022-08-20T21:09:22.445Z,31.05
2022-08-20T21:11:50.080Z,32.35
2022-08-20T21:14:18.766Z,31.33
2022-08-20T21:16:46.044Z,30.45
2022-08-20T21:19:13.972Z,29.75
2022-08-20T21:21:42.163Z,32.22
2022-08-20T21:24:09.958Z,29.73
2022-08-20T21:26:38.012Z,32.47
2022-08-20T21:29:08.329Z,29.48
2022-08-20T21:31:47.674Z,30.10
2022-08-20T21:34:16.329Z,31.70
2022-08-20T21:36:44.955Z,32.85
2022-08-20T21:39:12.337Z,33.13
2022-08-20T21:41:42.811Z,31.60
2022-08-20T21:44:25.904Z,31.90
2022-08-20T21:46:55.273Z,30.30
2022-08-20T21:49:24.743Z,32.42
2022-08-20T21:51:52.261Z,31.33
2022-08-20T21:54:26.652Z,30.92
2022-08-20T21:57:18.405Z,30.88
2022-08-20T21:59:47.849Z,30.53
2022-08-20T22:02:25.225Z,29.83
2022-08-20T22:04:59.053Z,29.55
2022-08-20T22:07:30.098Z,28.48
2022-08-20T22:10:10.623Z,27.42
2022-08-20T22:12:37.948Z,26.40
2022-08-20T22:15:09.392Z,26.13
2022-08-20T22:17:36.563Z,25.77
2022-08-20T22:20:05.179Z,23.75
2022-08-20T22:22:32.193Z,24.90
2022-08-20T22:24:59.370Z,24.35
2022-08-20T22:27:32.492Z,23.73
2022-08-20T22:30:00.317Z,24.75
2022-08-20T22:32:51.751Z,23.92
2022-08-20T22:35:31.956Z,22.45
2022-08-20T22:38:04.471Z,23.48
2022-08-20T22:40:33.203Z,23.63
2022-08-20T22:43:00.241Z,24.08
2022-08-20T22:45:28.060Z,24.67
2022-08-20T22:47:55.770Z,23.45
2022-08-20T22:50:25.177Z,23.27
2022-08-20T22:52:53.414Z,23.20
2022-08-20T22:55:20.643Z,23.02
2022-08-20T22:57:48.058Z,23.95
2022-08-20T23:00:18.395Z,23.25
2022-08-20T23:02:55.100Z,22.58
2022-08-20T23:05:26.149Z,23.00
2022-08-20T23:07:56.451Z,23.75
2022-08-20T23:10:26.238Z,24.30
2022-08-20T23:12:53.540Z,23.67
2022-08-20T23:15:21.092Z,25.08
2022-08-20T23:17:48.127Z,25.17
2022-08-20T23:20:17.911Z,23.50
2022-08-20T23:22:45.337Z,25.15
2022-08-20T23:25:13.191Z,24.42
2022-08-20T23:27:50.187Z,24.40
2022-08-20T23:30:20.155Z,25.85
2022-08-20T23:32:47.579Z,23.70
2022-08-20T23:35:15.489Z,26.08
2022-08-20T23:37:51.064Z,25.48
2022-08-20T23:40:26.868Z,24.35
2022-08-20T23:42:57.206Z,25.25
2022-08-20T23:45:25.755Z,26.50
2022-08-20T23:47:53.543Z,25.75
2022-08-20T23:50:26.146Z,26.48
2022-08-20T23:52:56.315Z,26.00
2022-08-20T23:55:24.662Z,26.17
2022-08-20T23:57:52.684Z,26.65
